createdAt,value
2017-10-25T00:00:08.533Z,0
2017-10-25T00:00:49.156Z,0
2017-10-25T00:01:29.698Z,0
2017-10-25T00:02:10.289Z,0
2017-10-25T00:02:50.895Z,0
2017-10-25T00:03:31.486Z,0
2017-10-25T00:04:12.089Z,0
2017-10-25T00:04:52.662Z,0
2017-10-25T00:05:33.304Z,0
2017-10-25T00:06:13.879Z,0
2017-10-25T00:06:54.509Z,0
2017-10-25T00:07:35.109Z,0
2017-10-25T00:08:15.682Z,0
2017-10-25T00:08:56.280Z,0
2017-10-25T00:09:36.878Z,0
2017-10-25T00:10:17.480Z,0
2017-10-25T00:10:58.050Z,0
2017-10-25T00:11:38.622Z,0
2017-10-25T00:12:19.231Z,0
2017-10-25T00:12:59.831Z,0
2017-10-25T00:13:40.402Z,0
2017-10-25T00:14:21.013Z,0
2017-10-25T00:15:01.596Z,0
2017-10-25T00:15:42.200Z,0
2017-10-25T00:16:22.791Z,0
2017-10-25T00:17:03.446Z,0
2017-10-25T00:17:44.023Z,0
2017-10-25T00:18:24.596Z,0
2017-10-25T00:19:05.184Z,0
2017-10-25T00:19:45.795Z,0
2017-10-25T00:20:26.448Z,0
2017-10-25T00:21:07.062Z,0
2017-10-25T00:21:47.707Z,0
2017-10-25T00:22:28.325Z,0
2017-10-25T00:23:08.911Z,0
2017-10-25T00:23:49.498Z,0
2017-10-25T00:24:30.102Z,0
2017-10-25T00:25:10.694Z,0
2017-10-25T00:25:51.309Z,0
2017-10-25T00:26:31.898Z,0
2017-10-25T00:27:12.533Z,0
2017-10-25T00:27:53.137Z,0
2017-10-25T00:28:33.795Z,0
2017-10-25T00:29:14.375Z,0
2017-10-25T00:29:55.011Z,0
2017-10-25T00:30:35.649Z,0
2017-10-25T00:31:16.239Z,0
2017-10-25T00:31:56.854Z,0
2017-10-25T00:32:37.446Z,0
2017-10-25T00:33:18.035Z,0
2017-10-25T00:33:58.632Z,0
2017-10-25T00:34:39.259Z,0
2017-10-25T00:35:19.882Z,0
2017-10-25T00:36:00.527Z,0
2017-10-25T00:36:41.121Z,0
2017-10-25T00:37:21.715Z,0
2017-10-25T00:38:02.278Z,0
2017-10-25T00:38:42.855Z,0
2017-10-25T00:39:23.463Z,0
2017-10-25T00:40:04.049Z,0
2017-10-25T00:40:44.648Z,0
2017-10-25T00:41:25.227Z,0
2017-10-25T00:42:05.837Z,0
2017-10-25T00:42:46.422Z,0
2017-10-25T00:43:27.034Z,0
2017-10-25T00:44:07.623Z,0
2017-10-25T00:44:48.212Z,0
2017-10-25T00:45:28.772Z,0
2017-10-25T00:46:09.369Z,0
2017-10-25T00:46:49.950Z,0
2017-10-25T00:47:30.513Z,0
2017-10-25T00:48:11.083Z,0
2017-10-25T00:48:51.671Z,0
2017-10-25T00:49:32.243Z,0
2017-10-25T00:50:12.855Z,0
2017-10-25T00:50:53.425Z,0
2017-10-25T00:51:34.002Z,0
2017-10-25T00:52:14.595Z,0
2017-10-25T00:52:55.181Z,0
2017-10-25T00:53:35.766Z,0
2017-10-25T00:54:16.337Z,0
2017-10-25T00:54:56.918Z,0
2017-10-25T00:55:37.504Z,0
2017-10-25T00:56:18.077Z,0
2017-10-25T00:56:58.678Z,0
2017-10-25T00:57:39.268Z,0
2017-10-25T00:58:19.864Z,0
2017-10-25T00:59:00.435Z,0
2017-10-25T00:59:41.043Z,0
2017-10-25T01:00:21.639Z,0
2017-10-25T01:01:02.218Z,0
2017-10-25T01:01:42.863Z,0
2017-10-25T01:02:23.441Z,0
2017-10-25T01:03:04.051Z,0
2017-10-25T01:03:44.644Z,0
2017-10-25T01:04:25.265Z,0
2017-10-25T01:05:05.845Z,0
2017-10-25T01:05:46.422Z,0
2017-10-25T01:06:27.036Z,0
2017-10-25T01:07:07.592Z,0
2017-10-25T01:07:48.209Z,0
2017-10-25T01:08:28.792Z,0
2017-10-25T01:09:09.421Z,0
2017-10-25T01:09:50.009Z,0
2017-10-25T01:10:30.621Z,0
2017-10-25T01:11:11.238Z,0
2017-10-25T01:11:51.811Z,0
2017-10-25T01:12:32.400Z,0
2017-10-25T01:13:13.002Z,0
2017-10-25T01:13:53.585Z,0
2017-10-25T01:14:34.194Z,0
2017-10-25T01:15:14.789Z,0
2017-10-25T01:15:55.379Z,0
2017-10-25T01:16:35.967Z,0
2017-10-25T01:17:16.586Z,0
2017-10-25T01:17:57.206Z,0
2017-10-25T01:18:37.807Z,0
2017-10-25T01:19:18.441Z,0
2017-10-25T01:19:59.069Z,0
2017-10-25T01:20:39.660Z,0
2017-10-25T01:21:20.245Z,0
2017-10-25T01:22:00.830Z,0
2017-10-25T01:22:41.418Z,0
2017-10-25T01:23:22.044Z,0
2017-10-25T01:24:02.677Z,0
2017-10-25T01:24:43.247Z,0
2017-10-25T01:25:23.818Z,0
2017-10-25T01:26:04.397Z,0
2017-10-25T01:26:44.977Z,0
2017-10-25T01:27:25.583Z,0
2017-10-25T01:28:06.165Z,0
2017-10-25T01:28:46.740Z,0
2017-10-25T01:29:27.309Z,0
2017-10-25T01:30:07.908Z,0
2017-10-25T01:30:48.477Z,0
2017-10-25T01:31:29.086Z,0
2017-10-25T01:32:09.699Z,0
2017-10-25T01:32:50.318Z,0
2017-10-25T01:33:30.874Z,0
2017-10-25T01:34:11.499Z,0
2017-10-25T01:34:52.089Z,0
2017-10-25T01:35:32.676Z,0
2017-10-25T01:36:13.254Z,0
2017-10-25T01:36:53.870Z,0
2017-10-25T01:37:34.463Z,0
2017-10-25T01:38:15.056Z,0
2017-10-25T01:38:55.667Z,0
2017-10-25T01:39:36.276Z,0
2017-10-25T01:40:16.867Z,0
2017-10-25T01:40:57.448Z,0
2017-10-25T01:41:38.071Z,0
2017-10-25T01:42:18.647Z,0
2017-10-25T01:42:59.276Z,0
2017-10-25T01:43:39.877Z,0
2017-10-25T01:44:20.479Z,0
2017-10-25T01:45:01.070Z,0
2017-10-25T01:45:41.633Z,0
2017-10-25T01:46:22.206Z,0
2017-10-25T01:47:02.753Z,0
2017-10-25T01:47:43.330Z,0
2017-10-25T01:48:23.897Z,0
2017-10-25T01:49:04.497Z,0
2017-10-25T01:49:45.082Z,0
2017-10-25T01:50:25.668Z,0
2017-10-25T01:51:06.236Z,0
2017-10-25T01:51:46.837Z,0
2017-10-25T01:52:27.405Z,0
2017-10-25T01:53:07.985Z,0
2017-10-25T01:53:48.556Z,0
2017-10-25T01:54:29.169Z,0
2017-10-25T01:55:09.750Z,0
2017-10-25T01:55:50.346Z,0
2017-10-25T01:56:30.920Z,0
2017-10-25T01:57:11.521Z,0
2017-10-25T01:57:52.108Z,0
2017-10-25T01:58:32.680Z,0
2017-10-25T01:59:13.285Z,0
2017-10-25T01:59:53.869Z,0
2017-10-25T02:00:34.435Z,0
2017-10-25T02:01:15.028Z,0
2017-10-25T02:01:55.608Z,0
2017-10-25T02:02:36.221Z,0
2017-10-25T02:03:16.796Z,0
2017-10-25T02:03:57.365Z,0
2017-10-25T02:04:37.960Z,0
2017-10-25T02:05:18.547Z,0
2017-10-25T02:05:59.122Z,0
2017-10-25T02:06:39.692Z,0
2017-10-25T02:07:20.262Z,0
2017-10-25T02:08:00.837Z,0
2017-10-25T02:08:41.420Z,0
2017-10-25T02:09:22.019Z,0
2017-10-25T02:10:02.625Z,0
2017-10-25T02:10:43.196Z,0
2017-10-25T02:11:23.770Z,0
2017-10-25T02:12:04.359Z,0
2017-10-25T02:12:44.943Z,0
2017-10-25T02:13:25.528Z,0
2017-10-25T02:14:06.091Z,0
2017-10-25T02:14:46.671Z,0
2017-10-25T02:15:27.260Z,0
2017-10-25T02:16:07.831Z,0
2017-10-25T02:16:48.447Z,0
2017-10-25T02:17:29.015Z,0
2017-10-25T02:18:09.605Z,0
2017-10-25T02:18:50.177Z,0
2017-10-25T02:19:30.733Z,0
2017-10-25T02:20:11.412Z,0
2017-10-25T02:20:51.976Z,0
2017-10-25T02:21:32.561Z,0
2017-10-25T02:22:13.155Z,0
2017-10-25T02:22:53.729Z,0
2017-10-25T02:23:34.319Z,0
2017-10-25T02:24:15.010Z,0
2017-10-25T02:24:55.712Z,0
2017-10-25T02:25:36.480Z,0
2017-10-25T02:26:17.417Z,0
2017-10-25T02:26:58.197Z,0
2017-10-25T02:27:39.018Z,0
2017-10-25T02:28:19.912Z,0
2017-10-25T02:29:00.753Z,0
2017-10-25T02:29:41.582Z,0
2017-10-25T02:30:22.431Z,0
2017-10-25T02:31:03.400Z,0
2017-10-25T02:31:44.970Z,0
2017-10-25T02:32:25.849Z,0
2017-10-25T02:33:06.707Z,0
2017-10-25T02:33:47.314Z,0
2017-10-25T02:34:27.908Z,0
2017-10-25T02:35:08.484Z,0
2017-10-25T02:35:49.106Z,0
2017-10-25T02:36:29.710Z,0
2017-10-25T02:37:10.286Z,0
2017-10-25T02:37:50.904Z,0
2017-10-25T02:38:31.492Z,0
2017-10-25T02:39:12.087Z,0
2017-10-25T02:39:52.693Z,0
2017-10-25T02:40:33.316Z,0
2017-10-25T02:41:13.912Z,0
2017-10-25T02:41:54.513Z,0
2017-10-25T02:42:35.114Z,0
2017-10-25T02:43:15.757Z,0
2017-10-25T02:43:56.532Z,0
2017-10-25T02:44:37.309Z,0
2017-10-25T02:45:18.156Z,0
2017-10-25T02:45:58.927Z,0
2017-10-25T02:46:39.680Z,0
2017-10-25T02:47:20.337Z,0
2017-10-25T02:48:01.221Z,0
2017-10-25T02:48:41.883Z,0
2017-10-25T02:49:22.749Z,0
2017-10-25T02:50:03.621Z,0
2017-10-25T02:50:44.455Z,0
2017-10-25T02:51:25.223Z,0
2017-10-25T02:52:05.883Z,0
2017-10-25T02:52:46.535Z,0
2017-10-25T02:53:27.140Z,0
2017-10-25T02:54:07.729Z,0
2017-10-25T02:54:48.315Z,0
2017-10-25T02:55:28.911Z,0
2017-10-25T02:56:09.501Z,0
2017-10-25T02:56:50.174Z,0
2017-10-25T02:57:30.762Z,0
2017-10-25T02:58:11.345Z,0
2017-10-25T02:58:51.972Z,0
2017-10-25T02:59:32.829Z,0
2017-10-25T03:00:13.888Z,0
2017-10-25T03:00:54.566Z,0
2017-10-25T03:01:35.394Z,0
2017-10-25T03:02:16.263Z,0
2017-10-25T03:02:57.086Z,0
2017-10-25T03:03:37.811Z,0
2017-10-25T03:04:18.680Z,0
2017-10-25T03:04:59.408Z,0
2017-10-25T03:05:40.150Z,0
2017-10-25T03:06:20.823Z,0
2017-10-25T03:07:01.552Z,0
2017-10-25T03:07:42.200Z,0
2017-10-25T03:08:22.848Z,0
2017-10-25T03:09:03.437Z,0
2017-10-25T03:09:44.032Z,0
2017-10-25T03:10:24.613Z,0
2017-10-25T03:11:05.296Z,0
2017-10-25T03:11:45.940Z,0
2017-10-25T03:12:26.617Z,0
2017-10-25T03:13:07.214Z,0
2017-10-25T03:13:47.808Z,0
2017-10-25T03:14:28.428Z,0
2017-10-25T03:15:09.089Z,0
2017-10-25T03:15:49.663Z,0
2017-10-25T03:16:30.244Z,0
2017-10-25T03:17:10.839Z,0
2017-10-25T03:17:51.444Z,0
2017-10-25T03:18:32.037Z,0
2017-10-25T03:19:12.628Z,0
2017-10-25T03:19:53.259Z,0
2017-10-25T03:20:33.861Z,0
2017-10-25T03:21:14.487Z,0
2017-10-25T03:21:55.106Z,0
2017-10-25T03:22:35.724Z,0
2017-10-25T03:23:16.315Z,0
2017-10-25T03:23:56.967Z,0
2017-10-25T03:24:37.553Z,0
2017-10-25T03:25:18.167Z,0
2017-10-25T03:25:58.766Z,0
2017-10-25T03:26:39.373Z,0
2017-10-25T03:27:20.062Z,0
2017-10-25T03:28:00.646Z,0
2017-10-25T03:28:41.222Z,0
2017-10-25T03:29:21.792Z,0
2017-10-25T03:30:02.365Z,0
2017-10-25T03:30:42.949Z,0
2017-10-25T03:31:23.547Z,0
2017-10-25T03:32:04.136Z,0
2017-10-25T03:32:44.727Z,0
2017-10-25T03:33:25.307Z,0
2017-10-25T03:34:05.937Z,0
2017-10-25T03:34:46.516Z,0
2017-10-25T03:35:27.133Z,0
2017-10-25T03:36:07.725Z,0
2017-10-25T03:36:48.323Z,0
2017-10-25T03:37:28.902Z,0
2017-10-25T03:38:09.509Z,0
2017-10-25T03:38:50.091Z,0
2017-10-25T03:39:30.682Z,0
2017-10-25T03:40:11.263Z,0
2017-10-25T03:40:51.864Z,0
2017-10-25T03:41:32.442Z,0
2017-10-25T03:42:13.054Z,0
2017-10-25T03:42:53.646Z,0
2017-10-25T03:43:34.250Z,0
2017-10-25T03:44:14.834Z,0
2017-10-25T03:44:55.408Z,0
2017-10-25T03:45:35.992Z,0
2017-10-25T03:46:16.628Z,0
2017-10-25T03:46:57.231Z,0
2017-10-25T03:47:37.846Z,0
2017-10-25T03:48:18.431Z,0
2017-10-25T03:48:59.024Z,0
2017-10-25T03:49:39.626Z,0
2017-10-25T03:50:20.237Z,0
2017-10-25T03:51:00.837Z,0
2017-10-25T03:51:41.405Z,0
2017-10-25T03:52:22.057Z,0
2017-10-25T03:53:02.627Z,0
2017-10-25T03:53:43.263Z,0
2017-10-25T03:54:23.841Z,0
2017-10-25T03:55:04.468Z,0
2017-10-25T03:55:45.063Z,0
2017-10-25T03:56:25.651Z,0
2017-10-25T03:57:06.323Z,0
2017-10-25T03:57:46.986Z,0
2017-10-25T03:58:27.552Z,0
2017-10-25T03:59:08.153Z,0
2017-10-25T03:59:48.772Z,0
2017-10-25T04:00:29.412Z,0
2017-10-25T04:01:09.999Z,0
2017-10-25T04:01:50.630Z,0
2017-10-25T04:02:31.225Z,0
2017-10-25T04:03:11.827Z,0
2017-10-25T04:03:52.419Z,0
2017-10-25T04:04:33.018Z,0
2017-10-25T04:05:13.608Z,0
2017-10-25T04:05:54.241Z,0
2017-10-25T04:06:34.826Z,0
2017-10-25T04:07:15.416Z,0
2017-10-25T04:07:55.997Z,0
2017-10-25T04:08:36.610Z,0
2017-10-25T04:09:17.184Z,0
2017-10-25T04:09:57.762Z,0
2017-10-25T04:10:38.355Z,0
2017-10-25T04:11:18.936Z,0
2017-10-25T04:11:59.526Z,0
2017-10-25T04:12:40.103Z,0
2017-10-25T04:13:20.743Z,0
2017-10-25T04:14:01.306Z,0
2017-10-25T04:14:41.934Z,0
2017-10-25T04:15:22.537Z,0
2017-10-25T04:16:03.120Z,0
2017-10-25T04:16:43.687Z,0
2017-10-25T04:17:24.273Z,0
2017-10-25T04:18:04.867Z,0
2017-10-25T04:18:45.512Z,0
2017-10-25T04:19:26.130Z,0
2017-10-25T04:20:06.768Z,0
2017-10-25T04:20:47.340Z,0
2017-10-25T04:21:27.925Z,0
2017-10-25T04:22:08.506Z,0
2017-10-25T04:22:49.097Z,0
2017-10-25T04:23:29.684Z,0
2017-10-25T04:24:10.316Z,0
2017-10-25T04:24:50.893Z,0
2017-10-25T04:25:31.481Z,0
2017-10-25T04:26:12.058Z,0
2017-10-25T04:26:52.634Z,0
2017-10-25T04:27:33.204Z,0
2017-10-25T04:28:13.766Z,0
2017-10-25T04:28:54.334Z,0
2017-10-25T04:29:34.908Z,0
2017-10-25T04:30:15.564Z,0
2017-10-25T04:30:56.127Z,0
2017-10-25T04:31:36.732Z,0
2017-10-25T04:32:17.327Z,0
2017-10-25T04:32:57.914Z,0
2017-10-25T04:33:38.527Z,0
2017-10-25T04:34:19.106Z,0
2017-10-25T04:34:59.691Z,0
2017-10-25T04:35:40.309Z,0
2017-10-25T04:36:20.943Z,0
2017-10-25T04:37:01.518Z,0
2017-10-25T04:37:42.111Z,0
2017-10-25T04:38:22.763Z,0
2017-10-25T04:39:03.328Z,0
2017-10-25T04:39:43.932Z,0
2017-10-25T04:40:24.525Z,0
2017-10-25T04:41:05.111Z,0
2017-10-25T04:41:45.733Z,0
2017-10-25T04:42:26.324Z,0
2017-10-25T04:43:06.924Z,0
2017-10-25T04:43:47.496Z,0
2017-10-25T04:44:28.075Z,0
2017-10-25T04:45:08.677Z,0
2017-10-25T04:45:49.254Z,0
2017-10-25T04:46:29.834Z,0
2017-10-25T04:47:10.406Z,0
2017-10-25T04:47:51.002Z,0
2017-10-25T04:48:31.574Z,0
2017-10-25T04:49:12.240Z,0
2017-10-25T04:49:52.835Z,0
2017-10-25T04:50:33.433Z,0
2017-10-25T04:51:14.188Z,0
2017-10-25T04:51:54.800Z,0
2017-10-25T04:52:35.486Z,0
2017-10-25T04:53:16.159Z,0
2017-10-25T04:53:57.005Z,0
2017-10-25T04:54:37.694Z,0
2017-10-25T04:55:18.657Z,0
2017-10-25T04:55:59.754Z,0
2017-10-25T04:56:40.649Z,0
2017-10-25T04:57:21.489Z,0
2017-10-25T04:58:02.448Z,0
2017-10-25T04:58:43.140Z,0
2017-10-25T04:59:24.026Z,0
2017-10-25T05:00:04.691Z,0
2017-10-25T05:00:45.439Z,0
2017-10-25T05:01:26.022Z,0
2017-10-25T05:02:06.607Z,0
2017-10-25T05:02:47.226Z,0
2017-10-25T05:03:28.184Z,0
2017-10-25T05:04:08.978Z,0
2017-10-25T05:04:49.816Z,0
2017-10-25T05:05:30.656Z,0
2017-10-25T05:06:11.241Z,0
2017-10-25T05:06:51.818Z,0
2017-10-25T05:07:32.417Z,0
2017-10-25T05:08:13.025Z,0
2017-10-25T05:08:53.604Z,0
2017-10-25T05:09:34.190Z,0
2017-10-25T05:10:14.793Z,0
2017-10-25T05:10:55.383Z,0
2017-10-25T05:11:35.955Z,0
2017-10-25T05:12:16.543Z,0
2017-10-25T05:12:57.127Z,0
2017-10-25T05:13:37.747Z,0
2017-10-25T05:14:18.340Z,0
2017-10-25T05:14:58.949Z,0
2017-10-25T05:15:39.558Z,0
2017-10-25T05:16:20.164Z,0
2017-10-25T05:17:00.754Z,0
2017-10-25T05:17:41.347Z,0
2017-10-25T05:18:21.933Z,0
2017-10-25T05:19:02.532Z,0
2017-10-25T05:19:43.178Z,0
2017-10-25T05:20:23.818Z,0
2017-10-25T05:21:04.423Z,0
2017-10-25T05:21:45.022Z,0
2017-10-25T05:22:25.620Z,0
2017-10-25T05:23:06.239Z,0
2017-10-25T05:23:46.827Z,0
2017-10-25T05:24:27.510Z,0
2017-10-25T05:25:08.071Z,0
2017-10-25T05:25:48.669Z,0
2017-10-25T05:26:29.262Z,0
2017-10-25T05:27:09.870Z,0
2017-10-25T05:27:50.547Z,0
2017-10-25T05:28:31.153Z,0
2017-10-25T05:29:11.794Z,0
2017-10-25T05:29:52.584Z,0
2017-10-25T05:30:33.392Z,0
2017-10-25T05:31:13.959Z,0
2017-10-25T05:31:54.629Z,0
2017-10-25T05:32:35.200Z,0
2017-10-25T05:33:15.803Z,0
2017-10-25T05:33:56.445Z,0
2017-10-25T05:34:37.068Z,0
2017-10-25T05:35:17.789Z,0
2017-10-25T05:35:58.551Z,0
2017-10-25T05:36:39.206Z,0
2017-10-25T05:37:19.832Z,0
2017-10-25T05:38:00.384Z,0
2017-10-25T05:38:41.066Z,0
2017-10-25T05:39:21.699Z,0
2017-10-25T05:40:02.368Z,0
2017-10-25T05:40:43.106Z,0
2017-10-25T05:41:23.985Z,0
2017-10-25T05:42:04.666Z,0
2017-10-25T05:42:45.406Z,0
2017-10-25T05:43:26.049Z,0
2017-10-25T05:44:06.798Z,0
2017-10-25T05:44:47.532Z,0
2017-10-25T05:45:28.335Z,0
2017-10-25T05:46:09.063Z,0
2017-10-25T05:46:49.731Z,0
2017-10-25T05:47:30.685Z,0
2017-10-25T05:48:11.357Z,0
2017-10-25T05:48:51.940Z,0
2017-10-25T05:49:32.551Z,0
2017-10-25T05:50:13.137Z,0
2017-10-25T05:50:53.742Z,0
2017-10-25T05:51:34.340Z,0
2017-10-25T05:52:14.928Z,0
2017-10-25T05:52:55.515Z,0
2017-10-25T05:53:36.152Z,0
2017-10-25T05:54:16.800Z,0
2017-10-25T05:54:57.489Z,0
2017-10-25T05:55:38.035Z,0
2017-10-25T05:56:18.632Z,0
2017-10-25T05:56:59.227Z,0
2017-10-25T05:57:39.842Z,0
2017-10-25T05:58:20.442Z,0
2017-10-25T05:59:01.070Z,0
2017-10-25T05:59:41.679Z,0
2017-10-25T06:00:22.292Z,0
2017-10-25T06:01:02.869Z,0
2017-10-25T06:01:43.458Z,0
2017-10-25T06:02:24.124Z,0
2017-10-25T06:03:04.745Z,0
2017-10-25T06:03:45.339Z,0
2017-10-25T06:04:25.897Z,0
2017-10-25T06:05:06.474Z,0
2017-10-25T06:05:47.042Z,0
2017-10-25T06:06:27.621Z,0
2017-10-25T06:07:08.226Z,0
2017-10-25T06:07:48.814Z,0
2017-10-25T06:08:29.404Z,0
2017-10-25T06:09:09.997Z,0
2017-10-25T06:09:50.565Z,0
2017-10-25T06:10:31.156Z,0
2017-10-25T06:11:11.795Z,0
2017-10-25T06:11:52.402Z,0
2017-10-25T06:12:32.974Z,0
2017-10-25T06:13:13.587Z,0
2017-10-25T06:13:54.157Z,0
2017-10-25T06:14:34.760Z,0
2017-10-25T06:15:15.363Z,0
2017-10-25T06:15:55.959Z,0
2017-10-25T06:16:36.542Z,0
2017-10-25T06:17:17.136Z,0
2017-10-25T06:17:57.709Z,0
2017-10-25T06:18:38.280Z,0
2017-10-25T06:19:18.848Z,0
2017-10-25T06:19:59.422Z,0
2017-10-25T06:20:40.016Z,0
2017-10-25T06:21:20.626Z,0
2017-10-25T06:22:01.238Z,0
2017-10-25T06:22:41.858Z,0
2017-10-25T06:23:22.446Z,0
2017-10-25T06:24:03.027Z,0
2017-10-25T06:24:43.622Z,0
2017-10-25T06:25:24.196Z,0
2017-10-25T06:26:04.790Z,0
2017-10-25T06:26:45.370Z,0
2017-10-25T06:27:25.965Z,0
2017-10-25T06:28:06.539Z,0
2017-10-25T06:28:47.112Z,0
2017-10-25T06:29:27.731Z,5
2017-10-25T06:30:08.316Z,5
2017-10-25T06:30:48.911Z,5
2017-10-25T06:31:29.527Z,5
2017-10-25T06:32:10.113Z,5
2017-10-25T06:32:50.741Z,5
2017-10-25T06:33:31.317Z,0
2017-10-25T06:34:11.899Z,0
2017-10-25T06:34:52.458Z,0
2017-10-25T06:35:33.072Z,0
2017-10-25T06:36:13.644Z,0
2017-10-25T06:36:54.204Z,0
2017-10-25T06:37:34.772Z,0
2017-10-25T06:38:15.384Z,0
2017-10-25T06:38:55.953Z,5
2017-10-25T06:39:36.535Z,5
2017-10-25T06:40:17.107Z,5
2017-10-25T06:40:57.697Z,5
2017-10-25T06:41:38.294Z,5
2017-10-25T06:42:18.884Z,5
2017-10-25T06:42:59.459Z,5
2017-10-25T06:43:40.198Z,5
2017-10-25T06:44:20.805Z,5
2017-10-25T06:45:01.375Z,5
2017-10-25T06:45:41.948Z,5
2017-10-25T06:46:22.608Z,5
2017-10-25T06:47:03.179Z,5
2017-10-25T06:47:43.746Z,5
2017-10-25T06:48:24.311Z,5
2017-10-25T06:49:04.926Z,5
2017-10-25T06:49:45.499Z,5
2017-10-25T06:50:26.087Z,5
2017-10-25T06:51:06.691Z,5
2017-10-25T06:51:47.298Z,5
2017-10-25T06:52:27.905Z,5
2017-10-25T06:53:08.499Z,5
2017-10-25T06:53:49.093Z,5
2017-10-25T06:54:29.686Z,5
2017-10-25T06:55:10.272Z,10
2017-10-25T06:55:50.840Z,10
2017-10-25T06:56:31.408Z,10
2017-10-25T06:57:12.014Z,10
2017-10-25T06:57:52.636Z,10
2017-10-25T06:58:33.205Z,10
2017-10-25T06:59:13.783Z,10
2017-10-25T06:59:54.385Z,10
2017-10-25T07:00:34.947Z,15
2017-10-25T07:01:15.566Z,15
2017-10-25T07:01:56.150Z,15
2017-10-25T07:02:36.766Z,10
2017-10-25T07:03:17.328Z,10
2017-10-25T07:03:57.907Z,10
2017-10-25T07:04:38.526Z,10
2017-10-25T07:05:19.105Z,10
2017-10-25T07:05:59.674Z,10
2017-10-25T07:06:40.258Z,10
2017-10-25T07:07:20.830Z,10
2017-10-25T07:08:01.422Z,10
2017-10-25T07:08:42.055Z,15
2017-10-25T07:09:22.648Z,15
2017-10-25T07:10:03.246Z,15
2017-10-25T07:10:43.882Z,15
2017-10-25T07:11:24.508Z,15
2017-10-25T07:12:05.096Z,20
2017-10-25T07:12:45.691Z,20
2017-10-25T07:13:26.283Z,20
2017-10-25T07:14:06.906Z,25
2017-10-25T07:14:47.475Z,30
2017-10-25T07:15:28.045Z,30
2017-10-25T07:16:08.636Z,35
2017-10-25T07:16:49.230Z,35
2017-10-25T07:17:29.831Z,35
2017-10-25T07:18:10.411Z,40
2017-10-25T07:18:51.004Z,40
2017-10-25T07:19:31.575Z,40
2017-10-25T07:20:12.153Z,35
2017-10-25T07:20:52.739Z,30
2017-10-25T07:21:33.354Z,30
2017-10-25T07:22:13.930Z,30
2017-10-25T07:22:54.564Z,25
2017-10-25T07:23:35.151Z,25
2017-10-25T07:24:15.748Z,25
2017-10-25T07:24:56.323Z,25
2017-10-25T07:25:36.909Z,25
2017-10-25T07:26:17.529Z,25
2017-10-25T07:26:58.144Z,25
2017-10-25T07:27:38.781Z,25
2017-10-25T07:28:19.378Z,25
2017-10-25T07:29:00.029Z,25
2017-10-25T07:29:40.611Z,30
2017-10-25T07:30:21.207Z,30
2017-10-25T07:31:01.773Z,30
2017-10-25T07:31:42.355Z,30
2017-10-25T07:32:22.932Z,30
2017-10-25T07:33:03.522Z,30
2017-10-25T07:33:44.091Z,35
2017-10-25T07:34:24.699Z,35
2017-10-25T07:35:05.290Z,35
2017-10-25T07:35:45.910Z,35
2017-10-25T07:36:26.487Z,35
2017-10-25T07:37:07.091Z,40
2017-10-25T07:37:47.655Z,40
2017-10-25T07:38:28.256Z,40
2017-10-25T07:39:08.854Z,40
2017-10-25T07:39:49.444Z,40
2017-10-25T07:40:30.042Z,45
2017-10-25T07:41:10.615Z,45
2017-10-25T07:41:51.193Z,50
2017-10-25T07:42:31.778Z,50
2017-10-25T07:43:12.368Z,55
2017-10-25T07:43:52.966Z,55
2017-10-25T07:44:33.534Z,55
2017-10-25T07:45:14.098Z,55
2017-10-25T07:45:54.693Z,55
2017-10-25T07:46:35.262Z,55
2017-10-25T07:47:15.855Z,55
2017-10-25T07:47:56.432Z,55
2017-10-25T07:48:37.011Z,55
2017-10-25T07:49:17.617Z,55
2017-10-25T07:49:58.207Z,65
2017-10-25T07:50:38.788Z,55
2017-10-25T07:51:19.351Z,55
2017-10-25T07:51:59.938Z,55
2017-10-25T07:52:40.544Z,55
2017-10-25T07:53:21.128Z,60
2017-10-25T07:54:01.707Z,60
2017-10-25T07:54:42.284Z,60
2017-10-25T07:55:22.875Z,60
2017-10-25T07:56:03.468Z,70
2017-10-25T07:56:44.051Z,65
2017-10-25T07:57:24.621Z,70
2017-10-25T07:58:05.250Z,65
2017-10-25T07:58:46.780Z,75
2017-10-25T07:59:27.404Z,80
2017-10-25T08:00:08.035Z,90
2017-10-25T08:00:48.644Z,100
2017-10-25T08:01:29.203Z,110
2017-10-25T08:02:09.830Z,120
2017-10-25T08:02:50.884Z,120
2017-10-25T08:03:31.570Z,115
2017-10-25T08:04:12.319Z,115
2017-10-25T08:04:53.836Z,95
2017-10-25T08:05:34.397Z,100
2017-10-25T08:06:15.100Z,115
2017-10-25T08:06:55.665Z,100
2017-10-25T08:07:36.260Z,110
2017-10-25T08:08:16.872Z,90
2017-10-25T08:08:57.448Z,80
2017-10-25T08:09:38.049Z,75
2017-10-25T08:10:18.626Z,75
2017-10-25T08:10:59.235Z,80
2017-10-25T08:11:39.826Z,95
2017-10-25T08:12:20.417Z,95
2017-10-25T08:13:00.982Z,100
2017-10-25T08:13:41.605Z,85
2017-10-25T08:14:22.290Z,120
2017-10-25T08:15:02.930Z,120
2017-10-25T08:15:43.531Z,100
2017-10-25T08:16:24.101Z,110
2017-10-25T08:17:04.700Z,95
2017-10-25T08:17:45.286Z,100
2017-10-25T08:18:25.857Z,100
2017-10-25T08:19:06.427Z,110
2017-10-25T08:19:47.051Z,135
2017-10-25T08:20:27.657Z,120
2017-10-25T08:21:08.255Z,100
2017-10-25T08:21:48.837Z,105
2017-10-25T08:22:29.492Z,100
2017-10-25T08:23:10.096Z,100
2017-10-25T08:23:50.695Z,100
2017-10-25T08:24:31.285Z,95
2017-10-25T08:25:11.872Z,100
2017-10-25T08:25:52.487Z,100
2017-10-25T08:26:33.121Z,90
2017-10-25T08:27:13.700Z,85
2017-10-25T08:27:54.266Z,80
2017-10-25T08:28:34.909Z,75
2017-10-25T08:29:15.477Z,65
2017-10-25T08:29:56.074Z,60
2017-10-25T08:30:36.636Z,60
2017-10-25T08:31:17.220Z,55
2017-10-25T08:31:57.797Z,55
2017-10-25T08:32:38.371Z,55
2017-10-25T08:33:18.945Z,55
2017-10-25T08:33:59.535Z,55
2017-10-25T08:34:40.104Z,55
2017-10-25T08:35:20.686Z,55
2017-10-25T08:36:01.233Z,55
2017-10-25T08:36:41.810Z,55
2017-10-25T08:37:22.385Z,60
2017-10-25T08:38:02.981Z,65
2017-10-25T08:38:43.534Z,70
2017-10-25T08:39:24.154Z,75
2017-10-25T08:40:04.722Z,75
2017-10-25T08:40:45.304Z,85
2017-10-25T08:41:25.877Z,85
2017-10-25T08:42:06.484Z,95
2017-10-25T08:42:47.090Z,95
2017-10-25T08:43:27.677Z,100
2017-10-25T08:44:08.285Z,105
2017-10-25T08:44:48.823Z,100
2017-10-25T08:45:29.393Z,100
2017-10-25T08:46:10.032Z,100
2017-10-25T08:46:50.593Z,100
2017-10-25T08:47:31.179Z,100
2017-10-25T08:48:11.769Z,95
2017-10-25T08:48:52.364Z,90
2017-10-25T08:49:32.939Z,80
2017-10-25T08:50:13.577Z,75
2017-10-25T08:50:54.164Z,75
2017-10-25T08:51:34.752Z,75
2017-10-25T08:52:15.326Z,70
2017-10-25T08:52:55.893Z,70
2017-10-25T08:53:36.531Z,70
2017-10-25T08:54:17.124Z,65
2017-10-25T08:54:57.749Z,65
2017-10-25T08:55:38.326Z,65
2017-10-25T08:56:18.950Z,60
2017-10-25T08:56:59.515Z,60
2017-10-25T08:57:40.084Z,60
2017-10-25T08:58:20.675Z,60
2017-10-25T08:59:01.259Z,60
2017-10-25T08:59:41.841Z,60
2017-10-25T09:00:22.444Z,60
2017-10-25T09:01:03.015Z,65
2017-10-25T09:01:43.618Z,70
2017-10-25T09:02:24.190Z,65
2017-10-25T09:03:04.765Z,65
2017-10-25T09:03:45.345Z,65
2017-10-25T09:04:25.954Z,70
2017-10-25T09:05:06.560Z,75
2017-10-25T09:05:47.170Z,80
2017-10-25T09:06:27.765Z,85
2017-10-25T09:07:08.354Z,85
2017-10-25T09:07:48.930Z,85
2017-10-25T09:08:29.542Z,80
2017-10-25T09:09:10.111Z,75
2017-10-25T09:09:50.796Z,70
2017-10-25T09:10:31.368Z,70
2017-10-25T09:11:11.969Z,70
2017-10-25T09:11:52.545Z,60
2017-10-25T09:12:33.107Z,60
2017-10-25T09:13:13.684Z,60
2017-10-25T09:13:54.265Z,60
2017-10-25T09:14:34.840Z,60
2017-10-25T09:15:15.474Z,65
2017-10-25T09:15:56.038Z,75
2017-10-25T09:16:36.601Z,80
2017-10-25T09:17:17.175Z,90
2017-10-25T09:17:57.749Z,105
2017-10-25T09:18:38.330Z,110
2017-10-25T09:19:18.913Z,110
2017-10-25T09:19:59.513Z,115
2017-10-25T09:20:40.096Z,115
2017-10-25T09:21:20.698Z,110
2017-10-25T09:22:01.268Z,110
2017-10-25T09:22:41.850Z,110
2017-10-25T09:23:22.425Z,110
2017-10-25T09:24:03.038Z,110
2017-10-25T09:24:43.636Z,110
2017-10-25T09:25:24.188Z,105
2017-10-25T09:26:04.766Z,105
2017-10-25T09:26:45.360Z,105
2017-10-25T09:27:25.938Z,105
2017-10-25T09:28:06.515Z,105
2017-10-25T09:28:47.115Z,110
2017-10-25T09:29:27.685Z,115
2017-10-25T09:30:08.253Z,115
2017-10-25T09:30:48.823Z,120
2017-10-25T09:31:29.444Z,130
2017-10-25T09:32:10.012Z,115
2017-10-25T09:32:50.596Z,115
2017-10-25T09:33:31.179Z,120
2017-10-25T09:34:11.736Z,120
2017-10-25T09:34:52.315Z,120
2017-10-25T09:35:32.881Z,125
2017-10-25T09:36:13.463Z,130
2017-10-25T09:36:54.034Z,150
2017-10-25T09:37:34.639Z,160
2017-10-25T09:38:15.209Z,150
2017-10-25T09:38:55.795Z,155
2017-10-25T09:39:36.363Z,150
2017-10-25T09:40:16.944Z,140
2017-10-25T09:40:57.537Z,130
2017-10-25T09:41:38.128Z,125
2017-10-25T09:42:18.721Z,125
2017-10-25T09:42:59.315Z,140
2017-10-25T09:43:39.888Z,140
2017-10-25T09:44:20.468Z,130
2017-10-25T09:45:01.039Z,130
2017-10-25T09:45:41.614Z,140
2017-10-25T09:46:22.269Z,120
2017-10-25T09:47:02.866Z,115
2017-10-25T09:47:43.472Z,105
2017-10-25T09:48:24.062Z,100
2017-10-25T09:49:04.683Z,105
2017-10-25T09:49:45.374Z,110
2017-10-25T09:50:25.991Z,115
2017-10-25T09:51:06.561Z,110
2017-10-25T09:51:47.157Z,105